Time;durP1;ratioP1;P1;durP2;ratioP2;P2;SDS_P1;SDS_P2;PMS_P1;PMS_P2;Temp;Humidity;BMP_temperature;BMP_pressure;BME280_temperature;BME280_humidity;BME280_pressure;Samples;Min_cycle;Max_cycle;Signal;HPM_P1;HPM_P2
2022/03/15 00:00:16;;;;;;;5.57;5.28;;;;;;;;;;4929935;29;20031;-61
2022/03/15 00:02:41;;;;;;;1.00;1.00;;;;;;;;;;4933485;29;20023;-62
2022/03/15 00:05:07;;;;;;;1.45;1.45;;;;;;;;;;4934394;29;20028;-62
2022/03/15 00:07:32;;;;;;;0.00;0.00;;;;;;;;;;4940449;29;20782;-61
2022/03/15 00:09:57;;;;;;;0.00;0.00;;;;;;;;;;4941357;29;20098;-61
2022/03/15 00:12:23;;;;;;;0.20;0.20;;;;;;;;;;4931378;29;20036;-61
2022/03/15 00:14:48;;;;;;;0.17;0.17;;;;;;;;;;4933632;29;20030;-61
2022/03/15 00:17:13;;;;;;;0.00;0.00;;;;;;;;;;4936398;29;20114;-60
2022/03/15 00:19:39;;;;;;;0.43;0.17;;;;;;;;;;4946247;29;20011;-62
2022/03/15 00:22:05;;;;;;;0.00;0.00;;;;;;;;;;4920437;29;20031;-61
2022/03/15 00:24:30;;;;;;;0.88;0.88;;;;;;;;;;4938656;29;20039;-60
2022/03/15 00:26:55;;;;;;;0.75;0.75;;;;;;;;;;4939575;29;20031;-62
2022/03/15 00:29:24;;;;;;;0.00;0.00;;;;;;;;;;4931008;29;20031;-64
2022/03/15 00:31:49;;;;;;;0.32;0.32;;;;;;;;;;4933811;29;20473;-64
2022/03/15 00:34:15;;;;;;;1.17;1.17;;;;;;;;;;4927737;29;20039;-64
2022/03/15 00:36:40;;;;;;;0.00;0.00;;;;;;;;;;4930093;29;20032;-66
2022/03/15 00:39:05;;;;;;;2.00;1.90;;;;;;;;;;4930516;29;20016;-66
2022/03/15 00:41:30;;;;;;;0.15;0.15;;;;;;;;;;4929340;29;20072;-63
2022/03/15 00:43:56;;;;;;;0.63;0.63;;;;;;;;;;4931386;29;20027;-65
2022/03/15 00:46:21;;;;;;;0.00;0.00;;;;;;;;;;4929170;29;20117;-64
2022/03/15 00:48:46;;;;;;;0.00;0.00;;;;;;;;;;4930558;29;20028;-65
2022/03/15 00:51:11;;;;;;;0.08;0.08;;;;;;;;;;4929910;29;20424;-64
2022/03/15 00:53:37;;;;;;;0.00;0.00;;;;;;;;;;4929660;29;20457;-64
2022/03/15 00:56:02;;;;;;;0.22;0.22;;;;;;;;;;4929965;29;20605;-65
2022/03/15 00:58:28;;;;;;;0.00;0.00;;;;;;;;;;4929808;29;20098;-64
2022/03/15 01:00:54;;;;;;;0.00;0.00;;;;;;;;;;4929895;29;20385;-63
2022/03/15 01:03:19;;;;;;;0.00;0.00;;;;;;;;;;4929261;29;20031;-63
2022/03/15 01:05:44;;;;;;;0.00;0.00;;;;;;;;;;4929012;29;20066;-62
2022/03/15 01:08:10;;;;;;;0.00;0.00;;;;;;;;;;4930838;29;20031;-62
2022/03/15 01:10:36;;;;;;;0.00;0.00;;;;;;;;;;4934491;29;20401;-62
2022/03/15 01:13:01;;;;;;;0.00;0.00;;;;;;;;;;4928372;29;20034;-63
2022/03/15 01:15:26;;;;;;;0.00;0.00;;;;;;;;;;4934757;29;20032;-63
2022/03/15 01:17:52;;;;;;;0.00;0.00;;;;;;;;;;4929951;29;20030;-64
2022/03/15 01:20:17;;;;;;;0.00;0.00;;;;;;;;;;4932350;29;20803;-64
2022/03/15 01:22:42;;;;;;;0.00;0.00;;;;;;;;;;4928990;29;20040;-63
2022/03/15 01:25:08;;;;;;;0.00;0.00;;;;;;;;;;4930751;29;20027;-62
2022/03/15 01:27:34;;;;;;;0.00;0.00;;;;;;;;;;4929673;29;20059;-63
2022/03/15 01:29:59;;;;;;;0.00;0.00;;;;;;;;;;4930603;29;20047;-63
2022/03/15 01:32:25;;;;;;;0.00;0.00;;;;;;;;;;4934021;29;20036;-63
2022/03/15 01:34:50;;;;;;;0.00;0.00;;;;;;;;;;4932741;29;20036;-62
2022/03/15 01:37:15;;;;;;;0.00;0.00;;;;;;;;;;4935327;29;20062;-62
2022/03/15 01:39:40;;;;;;;0.00;0.00;;;;;;;;;;4931130;29;20140;-63
2022/03/15 01:42:06;;;;;;;0.00;0.00;;;;;;;;;;4948537;29;20075;-63
2022/03/15 01:44:33;;;;;;;0.00;0.00;;;;;;;;;;4945322;29;20110;-61
2022/03/15 01:46:59;;;;;;;0.00;0.00;;;;;;;;;;4933888;29;20602;-61
2022/03/15 01:49:24;;;;;;;0.00;0.00;;;;;;;;;;4939119;29;20106;-61
2022/03/15 01:51:49;;;;;;;0.00;0.00;;;;;;;;;;4933325;29;20031;-62
2022/03/15 01:54:15;;;;;;;0.00;0.00;;;;;;;;;;4939245;29;20048;-62
2022/03/15 01:56:41;;;;;;;0.00;0.00;;;;;;;;;;4932923;29;20035;-62
2022/03/15 01:59:11;;;;;;;0.00;0.00;;;;;;;;;;4927479;29;20110;-62
2022/03/15 02:01:40;;;;;;;0.00;0.00;;;;;;;;;;4933370;29;20385;-61
2022/03/15 02:04:06;;;;;;;0.00;0.00;;;;;;;;;;4937417;29;20086;-62
2022/03/15 02:06:34;;;;;;;6.95;6.75;;;;;;;;;;4934630;29;20118;-62
2022/03/15 02:09:06;;;;;;;0.00;0.00;;;;;;;;;;4933618;29;20115;-62
2022/03/15 02:11:31;;;;;;;0.00;0.00;;;;;;;;;;4939334;29;20034;-63
2022/03/15 02:13:56;;;;;;;0.00;0.00;;;;;;;;;;4936671;29;20031;-62
2022/03/15 02:16:21;;;;;;;0.00;0.00;;;;;;;;;;4933274;29;20059;-62
2022/03/15 02:18:47;;;;;;;3.53;3.35;;;;;;;;;;4939838;29;20094;-61
2022/03/15 02:21:12;;;;;;;0.00;0.00;;;;;;;;;;4936652;29;20024;-61
2022/03/15 02:23:37;;;;;;;0.00;0.00;;;;;;;;;;4942235;29;20051;-61
2022/03/15 02:26:02;;;;;;;0.00;0.00;;;;;;;;;;4938758;29;20083;-63
2022/03/15 02:28:28;;;;;;;0.00;0.00;;;;;;;;;;4938217;29;20024;-62
2022/03/15 02:30:54;;;;;;;0.00;0.00;;;;;;;;;;4937087;29;20037;-66
2022/03/15 02:33:19;;;;;;;0.00;0.00;;;;;;;;;;4932301;29;20028;-66
2022/03/15 02:35:44;;;;;;;0.00;0.00;;;;;;;;;;4934600;29;20505;-64
2022/03/15 02:38:10;;;;;;;0.00;0.00;;;;;;;;;;4941216;29;20032;-64
2022/03/15 02:40:35;;;;;;;0.00;0.00;;;;;;;;;;4942141;29;20038;-64
2022/03/15 02:43:00;;;;;;;0.00;0.00;;;;;;;;;;4944188;29;20023;-62
2022/03/15 02:45:27;;;;;;;0.00;0.00;;;;;;;;;;4939329;29;20042;-61
2022/03/15 02:47:53;;;;;;;0.00;0.00;;;;;;;;;;4940858;29;20035;-63
2022/03/15 02:50:19;;;;;;;0.00;0.00;;;;;;;;;;4938198;29;20082;-63
2022/03/15 02:52:44;;;;;;;0.00;0.00;;;;;;;;;;4935775;29;20433;-63
2022/03/15 02:55:09;;;;;;;0.00;0.00;;;;;;;;;;4943315;29;20090;-63
2022/03/15 02:57:35;;;;;;;0.00;0.00;;;;;;;;;;4938915;29;20079;-64
2022/03/15 03:00:01;;;;;;;0.20;0.20;;;;;;;;;;4940906;29;20106;-61
2022/03/15 03:02:27;;;;;;;0.00;0.00;;;;;;;;;;4940414;29;20112;-61
2022/03/15 03:04:52;;;;;;;0.00;0.00;;;;;;;;;;4941020;29;20110;-62
2022/03/15 03:07:19;;;;;;;0.00;0.00;;;;;;;;;;4932158;29;20051;-62
2022/03/15 03:09:44;;;;;;;0.00;0.00;;;;;;;;;;4932146;29;20099;-63
2022/03/15 03:12:16;;;;;;;0.00;0.00;;;;;;;;;;4945192;28;20168;-63
2022/03/15 03:14:41;;;;;;;0.00;0.00;;;;;;;;;;4931837;29;20016;-63
2022/03/15 03:17:06;;;;;;;0.00;0.00;;;;;;;;;;4933030;29;20362;-61
2022/03/15 03:19:33;;;;;;;0.00;0.00;;;;;;;;;;4931535;29;20041;-62
2022/03/15 03:21:59;;;;;;;0.00;0.00;;;;;;;;;;4930458;29;20028;-61
2022/03/15 03:24:24;;;;;;;0.28;0.25;;;;;;;;;;4931788;29;20050;-62
2022/03/15 03:26:49;;;;;;;0.98;0.98;;;;;;;;;;4929493;29;20036;-61
2022/03/15 03:29:15;;;;;;;1.40;1.30;;;;;;;;;;4932466;29;20389;-62
2022/03/15 03:31:42;;;;;;;0.00;0.00;;;;;;;;;;4930632;29;20114;-61
2022/03/15 03:34:08;;;;;;;0.00;0.00;;;;;;;;;;4931600;29;20035;-61
2022/03/15 03:36:36;;;;;;;0.00;0.00;;;;;;;;;;4930619;29;20139;-61
2022/03/15 03:39:03;;;;;;;1.48;1.38;;;;;;;;;;4931608;29;20012;-61
2022/03/15 03:41:28;;;;;;;0.47;0.47;;;;;;;;;;4930681;29;20359;-62
2022/03/15 03:43:53;;;;;;;0.00;0.00;;;;;;;;;;4930485;29;20041;-63
2022/03/15 03:46:19;;;;;;;0.00;0.00;;;;;;;;;;4935910;29;20038;-62
2022/03/15 03:48:44;;;;;;;0.00;0.00;;;;;;;;;;4931585;29;20034;-62
2022/03/15 03:51:12;;;;;;;0.17;0.17;;;;;;;;;;4929177;29;20024;-61
2022/03/15 03:53:37;;;;;;;0.40;0.40;;;;;;;;;;4931564;29;20042;-63
2022/03/15 03:56:03;;;;;;;0.17;0.17;;;;;;;;;;4929071;29;20031;-63
2022/03/15 03:58:28;;;;;;;0.00;0.00;;;;;;;;;;4932342;29;20090;-62
2022/03/15 04:00:53;;;;;;;5.40;2.83;;;;;;;;;;4931040;29;20564;-62
2022/03/15 04:03:19;;;;;;;0.35;0.30;;;;;;;;;;4931523;29;20020;-62
2022/03/15 04:05:45;;;;;;;0.00;0.00;;;;;;;;;;4931170;29;20114;-61
2022/03/15 04:08:12;;;;;;;0.00;0.00;;;;;;;;;;4934717;29;20506;-61
2022/03/15 04:10:37;;;;;;;5.78;2.42;;;;;;;;;;4932048;29;20031;-63
2022/03/15 04:13:03;;;;;;;0.00;0.00;;;;;;;;;;4936173;29;20027;-61
2022/03/15 04:15:29;;;;;;;0.10;0.08;;;;;;;;;;4935352;29;20042;-62
2022/03/15 04:17:54;;;;;;;0.10;0.10;;;;;;;;;;4935980;29;20051;-62
2022/03/15 04:20:19;;;;;;;0.10;0.10;;;;;;;;;;4929734;29;20019;-62
2022/03/15 04:22:44;;;;;;;0.00;0.00;;;;;;;;;;4936179;29;20055;-62
2022/03/15 04:25:10;;;;;;;0.32;0.32;;;;;;;;;;4927866;29;20393;-63
2022/03/15 04:27:35;;;;;;;0.10;0.10;;;;;;;;;;4931397;29;20087;-62
2022/03/15 04:30:01;;;;;;;1.67;1.48;;;;;;;;;;4930230;29;20032;-62
2022/03/15 04:32:26;;;;;;;0.00;0.00;;;;;;;;;;4930901;29;20027;-62
2022/03/15 04:34:52;;;;;;;0.00;0.00;;;;;;;;;;4913600;29;20127;-62
2022/03/15 04:37:20;;;;;;;0.00;0.00;;;;;;;;;;4931443;29;20059;-61
2022/03/15 04:39:45;;;;;;;0.00;0.00;;;;;;;;;;4930731;29;20038;-62
2022/03/15 04:42:11;;;;;;;0.00;0.00;;;;;;;;;;4932705;29;20036;-62
2022/03/15 04:44:36;;;;;;;0.00;0.00;;;;;;;;;;4935920;29;20019;-61
2022/03/15 04:47:02;;;;;;;0.00;0.00;;;;;;;;;;4931915;29;20090;-62
2022/03/15 04:49:27;;;;;;;0.00;0.00;;;;;;;;;;4934052;29;20651;-63
2022/03/15 04:51:52;;;;;;;0.00;0.00;;;;;;;;;;4929511;29;20063;-62
2022/03/15 04:54:18;;;;;;;0.00;0.00;;;;;;;;;;4927845;29;20039;-62
2022/03/15 04:56:43;;;;;;;0.00;0.00;;;;;;;;;;4936603;29;20038;-63
2022/03/15 04:59:08;;;;;;;0.00;0.00;;;;;;;;;;4930499;29;20067;-64
2022/03/15 05:01:34;;;;;;;0.00;0.00;;;;;;;;;;4930312;29;20019;-62
2022/03/15 05:04:00;;;;;;;0.00;0.00;;;;;;;;;;4931319;29;20533;-62
2022/03/15 05:06:25;;;;;;;0.00;0.00;;;;;;;;;;4929119;29;20139;-61
2022/03/15 05:08:50;;;;;;;0.65;0.45;;;;;;;;;;4930720;29;20538;-63
2022/03/15 05:11:18;;;;;;;0.17;0.17;;;;;;;;;;4929850;29;20351;-63
2022/03/15 05:13:45;;;;;;;0.00;0.00;;;;;;;;;;4927555;29;20075;-64
2022/03/15 05:16:15;;;;;;;0.00;0.00;;;;;;;;;;4930672;29;20036;-62
2022/03/15 05:18:40;;;;;;;0.00;0.00;;;;;;;;;;4929320;29;20024;-63
2022/03/15 05:21:07;;;;;;;0.00;0.00;;;;;;;;;;4928530;29;20031;-62
2022/03/15 05:23:35;;;;;;;0.00;0.00;;;;;;;;;;4929591;29;20048;-62
2022/03/15 05:26:01;;;;;;;0.00;0.00;;;;;;;;;;4929837;29;20118;-63
2022/03/15 05:28:26;;;;;;;0.00;0.00;;;;;;;;;;4930349;29;20507;-63
2022/03/15 05:30:52;;;;;;;0.00;0.00;;;;;;;;;;4927935;29;20038;-63
2022/03/15 05:33:17;;;;;;;0.00;0.00;;;;;;;;;;4929650;29;20047;-62
2022/03/15 05:35:42;;;;;;;0.00;0.00;;;;;;;;;;4912808;29;20050;-64
2022/03/15 05:38:08;;;;;;;0.00;0.00;;;;;;;;;;4934560;29;20023;-63
2022/03/15 05:40:34;;;;;;;0.00;0.00;;;;;;;;;;4934027;29;20030;-62
2022/03/15 05:42:59;;;;;;;0.70;0.70;;;;;;;;;;4932339;29;20201;-61
2022/03/15 05:45:27;;;;;;;0.00;0.00;;;;;;;;;;4934071;29;20607;-61
2022/03/15 05:47:53;;;;;;;0.00;0.00;;;;;;;;;;4932182;29;20028;-62
2022/03/15 05:50:18;;;;;;;0.00;0.00;;;;;;;;;;4931231;29;20031;-62
2022/03/15 05:52:44;;;;;;;0.00;0.00;;;;;;;;;;4933836;29;20059;-62
2022/03/15 05:55:10;;;;;;;0.57;0.57;;;;;;;;;;4932478;29;20473;-61
2022/03/15 05:57:35;;;;;;;0.32;0.32;;;;;;;;;;4932404;29;20028;-61
2022/03/15 06:00:01;;;;;;;0.00;0.00;;;;;;;;;;4932122;29;20043;-62
2022/03/15 06:02:26;;;;;;;0.00;0.00;;;;;;;;;;4933252;29;20912;-62
2022/03/15 06:04:51;;;;;;;0.10;0.10;;;;;;;;;;4932618;29;20082;-63
2022/03/15 06:07:17;;;;;;;0.00;0.00;;;;;;;;;;4932869;29;20024;-63
2022/03/15 06:09:42;;;;;;;0.00;0.00;;;;;;;;;;4931667;29;20103;-63
2022/03/15 06:12:08;;;;;;;1.27;1.17;;;;;;;;;;4932304;29;20136;-63
2022/03/15 06:14:34;;;;;;;0.00;0.00;;;;;;;;;;4937608;29;20026;-63
2022/03/15 06:16:59;;;;;;;1.65;1.65;;;;;;;;;;4914640;29;20020;-63
2022/03/15 06:19:25;;;;;;;0.00;0.00;;;;;;;;;;4932822;29;20027;-63
2022/03/15 06:21:50;;;;;;;0.00;0.00;;;;;;;;;;4932578;29;20410;-63
2022/03/15 06:24:16;;;;;;;0.90;0.90;;;;;;;;;;4931778;29;20123;-62
2022/03/15 06:26:42;;;;;;;0.10;0.10;;;;;;;;;;4932600;29;20024;-62
2022/03/15 06:29:08;;;;;;;0.08;0.08;;;;;;;;;;4931499;29;20118;-62
2022/03/15 06:31:33;;;;;;;0.03;0.03;;;;;;;;;;4913861;29;20027;-62
2022/03/15 06:33:59;;;;;;;0.00;0.00;;;;;;;;;;4932213;29;20020;-62
2022/03/15 06:36:25;;;;;;;0.00;0.00;;;;;;;;;;4931139;29;20027;-62
2022/03/15 06:38:50;;;;;;;0.08;0.08;;;;;;;;;;4932788;29;20043;-62
2022/03/15 06:41:16;;;;;;;0.00;0.00;;;;;;;;;;4934655;29;20087;-63
2022/03/15 06:43:42;;;;;;;0.00;0.00;;;;;;;;;;4933412;29;20024;-61
2022/03/15 06:46:08;;;;;;;1.13;0.65;;;;;;;;;;4936366;29;20034;-63
2022/03/15 06:48:33;;;;;;;0.10;0.10;;;;;;;;;;4929848;29;20036;-63
2022/03/15 06:50:58;;;;;;;0.00;0.00;;;;;;;;;;4932416;29;20035;-61
2022/03/15 06:53:24;;;;;;;0.00;0.00;;;;;;;;;;4930694;29;20433;-62
2022/03/15 06:55:49;;;;;;;0.00;0.00;;;;;;;;;;4932757;29;20111;-62
2022/03/15 06:58:15;;;;;;;0.00;0.00;;;;;;;;;;4930338;29;20103;-63
2022/03/15 07:00:40;;;;;;;0.00;0.00;;;;;;;;;;4931706;29;20458;-63
2022/03/15 07:03:05;;;;;;;0.00;0.00;;;;;;;;;;4931941;29;20099;-63
2022/03/15 07:05:30;;;;;;;0.00;0.00;;;;;;;;;;4930870;29;20054;-63
2022/03/15 07:07:56;;;;;;;0.00;0.00;;;;;;;;;;4931986;29;20051;-63
2022/03/15 07:10:21;;;;;;;0.28;0.10;;;;;;;;;;4930010;29;20481;-63
2022/03/15 07:12:47;;;;;;;0.00;0.00;;;;;;;;;;4933520;29;20020;-62
2022/03/15 07:15:12;;;;;;;0.00;0.00;;;;;;;;;;4930022;29;20083;-62
2022/03/15 07:17:38;;;;;;;0.00;0.00;;;;;;;;;;4929200;29;20027;-63
2022/03/15 07:20:03;;;;;;;0.00;0.00;;;;;;;;;;4929834;29;20023;-63
2022/03/15 07:22:29;;;;;;;0.00;0.00;;;;;;;;;;4930035;29;20143;-63
2022/03/15 07:24:54;;;;;;;0.00;0.00;;;;;;;;;;4930416;29;20028;-63
2022/03/15 07:27:20;;;;;;;0.22;0.22;;;;;;;;;;4930367;29;20071;-63
2022/03/15 07:29:45;;;;;;;0.00;0.00;;;;;;;;;;4932659;29;20095;-63
2022/03/15 07:32:10;;;;;;;0.20;0.20;;;;;;;;;;4928935;29;20043;-63
2022/03/15 07:34:36;;;;;;;0.00;0.00;;;;;;;;;;4932960;29;20714;-63
2022/03/15 07:37:02;;;;;;;0.00;0.00;;;;;;;;;;4929944;29;20086;-63
2022/03/15 07:39:27;;;;;;;0.00;0.00;;;;;;;;;;4928283;29;20489;-63
2022/03/15 07:41:52;;;;;;;0.00;0.00;;;;;;;;;;4931173;29;20031;-64
2022/03/15 07:44:18;;;;;;;0.00;0.00;;;;;;;;;;4929920;29;20032;-63
2022/03/15 07:46:48;;;;;;;0.00;0.00;;;;;;;;;;4928886;29;20039;-63
2022/03/15 07:49:15;;;;;;;0.00;0.00;;;;;;;;;;4930436;29;20039;-63
2022/03/15 07:51:40;;;;;;;0.00;0.00;;;;;;;;;;4929116;29;20020;-63
2022/03/15 07:54:05;;;;;;;0.00;0.00;;;;;;;;;;4929923;29;20043;-63
2022/03/15 07:56:31;;;;;;;0.00;0.00;;;;;;;;;;4929042;29;20019;-63
2022/03/15 07:58:56;;;;;;;0.22;0.22;;;;;;;;;;4929040;29;20434;-63
2022/03/15 08:01:21;;;;;;;0.00;0.00;;;;;;;;;;4928107;29;20484;-63
2022/03/15 08:03:46;;;;;;;0.00;0.00;;;;;;;;;;4929388;29;20115;-63
2022/03/15 08:06:12;;;;;;;0.00;0.00;;;;;;;;;;4930321;29;20098;-62
2022/03/15 08:08:37;;;;;;;0.00;0.00;;;;;;;;;;4928796;29;20199;-62
2022/03/15 08:11:06;;;;;;;0.30;0.30;;;;;;;;;;4929373;29;20024;-63
2022/03/15 08:13:31;;;;;;;0.00;0.00;;;;;;;;;;4928104;29;20032;-62
2022/03/15 08:15:57;;;;;;;0.55;0.55;;;;;;;;;;4930178;29;20186;-64
2022/03/15 08:18:22;;;;;;;0.00;0.00;;;;;;;;;;4928552;29;20024;-63
2022/03/15 08:20:48;;;;;;;0.00;0.00;;;;;;;;;;4929649;29;20044;-62
2022/03/15 08:23:13;;;;;;;0.00;0.00;;;;;;;;;;4931454;29;20052;-62
2022/03/15 08:25:38;;;;;;;2.75;1.42;;;;;;;;;;4931165;29;20024;-61
2022/03/15 08:28:04;;;;;;;0.00;0.00;;;;;;;;;;4932244;29;20024;-61
2022/03/15 08:30:29;;;;;;;0.00;0.00;;;;;;;;;;4927738;29;20114;-62
2022/03/15 08:32:55;;;;;;;0.00;0.00;;;;;;;;;;4930534;29;20032;-62
2022/03/15 08:35:21;;;;;;;1.10;1.10;;;;;;;;;;4928298;29;20031;-63
2022/03/15 08:37:50;;;;;;;0.00;0.00;;;;;;;;;;4929387;29;20028;-63
2022/03/15 08:40:16;;;;;;;0.00;0.00;;;;;;;;;;4929077;29;20027;-62
2022/03/15 08:42:41;;;;;;;0.00;0.00;;;;;;;;;;4930699;29;20088;-62
2022/03/15 08:45:08;;;;;;;1.27;1.17;;;;;;;;;;4930535;29;20020;-62
2022/03/15 08:47:33;;;;;;;0.00;0.00;;;;;;;;;;4913621;29;20038;-62
2022/03/15 08:49:58;;;;;;;0.00;0.00;;;;;;;;;;4912927;29;20499;-64
2022/03/15 08:52:24;;;;;;;0.00;0.00;;;;;;;;;;4929973;29;20024;-61
2022/03/15 08:54:49;;;;;;;0.00;0.00;;;;;;;;;;4929739;29;20107;-62
2022/03/15 08:57:15;;;;;;;0.00;0.00;;;;;;;;;;4932112;29;20039;-62
2022/03/15 08:59:40;;;;;;;0.00;0.00;;;;;;;;;;4934262;29;20023;-63
2022/03/15 09:02:08;;;;;;;0.00;0.00;;;;;;;;;;4928354;29;20028;-62
2022/03/15 09:04:34;;;;;;;0.00;0.00;;;;;;;;;;4929547;29;20024;-63
2022/03/15 09:06:59;;;;;;;0.00;0.00;;;;;;;;;;4927921;29;20488;-62
2022/03/15 09:09:25;;;;;;;1.17;1.17;;;;;;;;;;4927688;29;20078;-61
2022/03/15 09:11:50;;;;;;;0.00;0.00;;;;;;;;;;4928588;29;20039;-63
2022/03/15 09:14:16;;;;;;;0.00;0.00;;;;;;;;;;4930053;29;20031;-62
2022/03/15 09:16:41;;;;;;;0.00;0.00;;;;;;;;;;4931552;29;20079;-61
2022/03/15 09:19:08;;;;;;;0.00;0.00;;;;;;;;;;4916218;29;20046;-61
2022/03/15 09:21:34;;;;;;;0.00;0.00;;;;;;;;;;4928799;29;20047;-62
2022/03/15 09:23:59;;;;;;;0.00;0.00;;;;;;;;;;4910798;29;20087;-64
2022/03/15 09:26:24;;;;;;;0.00;0.00;;;;;;;;;;4931605;29;20020;-62
2022/03/15 09:28:50;;;;;;;0.03;0.03;;;;;;;;;;4925800;29;20048;-62
2022/03/15 09:31:16;;;;;;;0.00;0.00;;;;;;;;;;4929013;29;20032;-62
2022/03/15 09:33:42;;;;;;;0.00;0.00;;;;;;;;;;4929745;29;20038;-62
2022/03/15 09:36:07;;;;;;;0.00;0.00;;;;;;;;;;4927576;29;20465;-62
2022/03/15 09:38:33;;;;;;;0.00;0.00;;;;;;;;;;4931622;29;20024;-63
2022/03/15 09:41:00;;;;;;;0.00;0.00;;;;;;;;;;4927079;29;20032;-63
2022/03/15 09:43:25;;;;;;;0.00;0.00;;;;;;;;;;4930006;29;20028;-62
2022/03/15 09:45:51;;;;;;;0.00;0.00;;;;;;;;;;4933487;29;20488;-62
2022/03/15 09:48:20;;;;;;;0.00;0.00;;;;;;;;;;4928489;29;20397;-63
2022/03/15 09:50:50;;;;;;;0.00;0.00;;;;;;;;;;4928512;29;20032;-62
2022/03/15 09:53:15;;;;;;;0.00;0.00;;;;;;;;;;4927886;29;20470;-63
2022/03/15 09:55:44;;;;;;;0.00;0.00;;;;;;;;;;4930800;29;20047;-62
2022/03/15 09:58:10;;;;;;;0.00;0.00;;;;;;;;;;4928407;29;20429;-62
2022/03/15 10:00:37;;;;;;;0.25;0.25;;;;;;;;;;4928439;29;20087;-61
2022/03/15 10:03:02;;;;;;;0.00;0.00;;;;;;;;;;4929566;29;20350;-61
2022/03/15 10:05:28;;;;;;;1.08;1.08;;;;;;;;;;4928241;29;20015;-62
2022/03/15 10:07:53;;;;;;;0.80;0.80;;;;;;;;;;4929785;29;20020;-61
2022/03/15 10:10:18;;;;;;;0.00;0.00;;;;;;;;;;4927764;29;20069;-61
2022/03/15 10:12:44;;;;;;;0.00;0.00;;;;;;;;;;4930369;29;20488;-63
2022/03/15 10:15:22;;;;;;;1.38;1.17;;;;;;;;;;4938990;29;20135;-62
2022/03/15 10:18:04;;;;;;;0.00;0.00;;;;;;;;;;4930683;29;20757;-62
2022/03/15 10:20:31;;;;;;;0.00;0.00;;;;;;;;;;4928217;29;20465;-62
2022/03/15 10:22:58;;;;;;;0.00;0.00;;;;;;;;;;4930895;29;20518;-62
2022/03/15 10:25:24;;;;;;;0.00;0.00;;;;;;;;;;4933194;29;20028;-62
2022/03/15 10:27:50;;;;;;;0.00;0.00;;;;;;;;;;4935509;29;20441;-62
2022/03/15 10:30:16;;;;;;;1.15;1.15;;;;;;;;;;4918948;29;20024;-62
2022/03/15 10:32:41;;;;;;;0.00;0.00;;;;;;;;;;4930815;29;20076;-63
2022/03/15 10:35:08;;;;;;;0.00;0.00;;;;;;;;;;4933496;29;20032;-62
2022/03/15 10:37:35;;;;;;;0.00;0.00;;;;;;;;;;4930145;29;20028;-63
2022/03/15 10:40:01;;;;;;;0.00;0.00;;;;;;;;;;4931049;29;20045;-63
2022/03/15 10:42:26;;;;;;;0.00;0.00;;;;;;;;;;4931920;29;20020;-63
2022/03/15 10:44:51;;;;;;;0.00;0.00;;;;;;;;;;4935693;29;20020;-62
2022/03/15 10:47:17;;;;;;;0.00;0.00;;;;;;;;;;4933075;29;20035;-61
2022/03/15 10:49:54;;;;;;;0.00;0.00;;;;;;;;;;4930567;29;20056;-63
2022/03/15 10:52:28;;;;;;;0.00;0.00;;;;;;;;;;4934615;29;20036;-61
2022/03/15 10:54:53;;;;;;;0.00;0.00;;;;;;;;;;4931718;29;20032;-61
2022/03/15 10:57:18;;;;;;;0.00;0.00;;;;;;;;;;4931272;29;20028;-61
2022/03/15 10:59:43;;;;;;;0.00;0.00;;;;;;;;;;4933737;29;20050;-65
2022/03/15 11:02:10;;;;;;;0.00;0.00;;;;;;;;;;4932738;29;20381;-63
2022/03/15 11:04:44;;;;;;;0.10;0.10;;;;;;;;;;4941346;29;20023;-62
2022/03/15 11:07:09;;;;;;;0.00;0.00;;;;;;;;;;4931896;29;20107;-63
2022/03/15 11:09:36;;;;;;;0.00;0.00;;;;;;;;;;4930425;29;20106;-62
2022/03/15 11:12:04;;;;;;;0.20;0.20;;;;;;;;;;4931569;29;20392;-61
2022/03/15 11:14:49;;;;;;;0.00;0.00;;;;;;;;;;4914827;29;20053;-62
2022/03/15 11:17:19;;;;;;;0.00;0.00;;;;;;;;;;4931021;29;20062;-62
2022/03/15 11:19:44;;;;;;;0.00;0.00;;;;;;;;;;4937497;29;20440;-62
2022/03/15 11:22:11;;;;;;;0.00;0.00;;;;;;;;;;4932734;29;20031;-62
2022/03/15 11:24:42;;;;;;;0.00;0.00;;;;;;;;;;4930022;29;20168;-61
2022/03/15 11:27:08;;;;;;;0.00;0.00;;;;;;;;;;4932466;29;20046;-61
2022/03/15 11:29:34;;;;;;;0.00;0.00;;;;;;;;;;4934635;29;20357;-61
2022/03/15 11:32:00;;;;;;;0.00;0.00;;;;;;;;;;4934102;29;20051;-62
2022/03/15 11:34:26;;;;;;;0.00;0.00;;;;;;;;;;4935535;29;20032;-62
2022/03/15 11:36:52;;;;;;;0.00;0.00;;;;;;;;;;4933348;29;20494;-61
2022/03/15 11:39:18;;;;;;;0.00;0.00;;;;;;;;;;4934391;29;20023;-63
2022/03/15 11:41:44;;;;;;;0.00;0.00;;;;;;;;;;4914474;29;20042;-61
2022/03/15 11:44:19;;;;;;;0.00;0.00;;;;;;;;;;4916314;29;20114;-62
2022/03/15 11:46:50;;;;;;;0.00;0.00;;;;;;;;;;4930734;29;20059;-62
2022/03/15 11:49:22;;;;;;;0.00;0.00;;;;;;;;;;4931724;29;20034;-62
2022/03/15 11:52:01;;;;;;;0.00;0.00;;;;;;;;;;4929213;29;20512;-61
2022/03/15 11:54:26;;;;;;;;;;;;;;;;;;4930708;29;20050;-61
2022/03/15 11:56:52;;;;;;;0.00;0.00;;;;;;;;;;4934972;29;19915;-63
2022/03/15 11:59:17;;;;;;;0.00;0.00;;;;;;;;;;4914428;29;20015;-63
2022/03/15 12:01:55;;;;;;;0.00;0.00;;;;;;;;;;4928011;29;20024;-61
2022/03/15 12:04:24;;;;;;;0.00;0.00;;;;;;;;;;4929877;29;20465;-61
2022/03/15 12:06:50;;;;;;;;;;;;;;;;;;4930068;29;20032;-61
2022/03/15 12:09:19;;;;;;;0.25;0.25;;;;;;;;;;4929090;29;19919;-62
2022/03/15 12:11:46;;;;;;;0.00;0.00;;;;;;;;;;4931121;29;20663;-62
2022/03/15 12:14:13;;;;;;;0.00;0.00;;;;;;;;;;4927553;29;20035;-62
2022/03/15 12:16:42;;;;;;;0.00;0.00;;;;;;;;;;4929213;29;20507;-62
2022/03/15 12:19:23;;;;;;;0.47;0.47;;;;;;;;;;4931635;29;20080;-61
2022/03/15 12:21:52;;;;;;;0.10;0.10;;;;;;;;;;4927569;29;20036;-61
2022/03/15 12:24:19;;;;;;;0.00;0.00;;;;;;;;;;4930946;29;20072;-62
2022/03/15 12:26:58;;;;;;;0.00;0.00;;;;;;;;;;4911139;29;20032;-62
2022/03/15 12:29:26;;;;;;;0.00;0.00;;;;;;;;;;4929961;29;20023;-62
2022/03/15 12:31:52;;;;;;;0.00;0.00;;;;;;;;;;4928169;29;20055;-62
2022/03/15 12:34:18;;;;;;;0.60;0.57;;;;;;;;;;4931557;29;20781;-60
2022/03/15 12:36:50;;;;;;;0.10;0.10;;;;;;;;;;4930981;29;20059;-62
2022/03/15 12:39:17;;;;;;;1.38;1.35;;;;;;;;;;4930373;29;20039;-61
2022/03/15 12:41:43;;;;;;;0.00;0.00;;;;;;;;;;4938876;29;20062;-62
2022/03/15 12:44:08;;;;;;;0.00;0.00;;;;;;;;;;4934466;29;20139;-61
2022/03/15 12:46:35;;;;;;;0.00;0.00;;;;;;;;;;4929256;29;20465;-62
2022/03/15 12:49:05;;;;;;;0.00;0.00;;;;;;;;;;4935040;29;20370;-62
2022/03/15 12:51:30;;;;;;;;;;;;;;;;;;4911426;29;20087;-61
2022/03/15 12:54:03;;;;;;;1.08;1.08;;;;;;;;;;4934115;29;19953;-61
2022/03/15 12:56:28;;;;;;;0.00;0.00;;;;;;;;;;4934987;29;20055;-61
2022/03/15 12:58:54;;;;;;;0.80;0.80;;;;;;;;;;4933219;29;20039;-62
2022/03/15 13:01:19;;;;;;;0.00;0.00;;;;;;;;;;4935420;29;20056;-62
2022/03/15 13:03:44;;;;;;;0.00;0.00;;;;;;;;;;4934424;29;20030;-62
2022/03/15 13:06:20;;;;;;;0.20;0.20;;;;;;;;;;4932791;29;20028;-62
2022/03/15 13:08:55;;;;;;;0.10;0.10;;;;;;;;;;4935611;29;20102;-62
2022/03/15 13:11:21;;;;;;;0.00;0.00;;;;;;;;;;4933151;29;20138;-63
2022/03/15 13:13:46;;;;;;;0.00;0.00;;;;;;;;;;4930973;29;20122;-63
2022/03/15 13:16:12;;;;;;;0.00;0.00;;;;;;;;;;4936269;29;20091;-62
2022/03/15 13:18:40;;;;;;;0.00;0.00;;;;;;;;;;4933049;29;20038;-62
2022/03/15 13:21:06;;;;;;;0.30;0.30;;;;;;;;;;4929752;29;20023;-61
2022/03/15 13:23:34;;;;;;;0.00;0.00;;;;;;;;;;4937770;29;20043;-62
2022/03/15 13:26:04;;;;;;;0.00;0.00;;;;;;;;;;4930223;29;20032;-61
2022/03/15 13:28:31;;;;;;;0.38;0.38;;;;;;;;;;4930210;29;20420;-61
2022/03/15 13:30:59;;;;;;;0.00;0.00;;;;;;;;;;4928673;29;20090;-62
2022/03/15 13:33:29;;;;;;;0.00;0.00;;;;;;;;;;4936915;29;20031;-62
2022/03/15 13:36:02;;;;;;;0.00;0.00;;;;;;;;;;4928543;29;20030;-62
2022/03/15 13:38:29;;;;;;;0.00;0.00;;;;;;;;;;4936215;29;20052;-62
2022/03/15 13:40:55;;;;;;;0.00;0.00;;;;;;;;;;4939723;29;20034;-63
2022/03/15 13:43:21;;;;;;;0.08;0.08;;;;;;;;;;4933718;29;20458;-63
2022/03/15 13:45:46;;;;;;;0.00;0.00;;;;;;;;;;4937389;29;20496;-63
2022/03/15 13:48:12;;;;;;;0.00;0.00;;;;;;;;;;4931921;29;20024;-63
2022/03/15 13:50:38;;;;;;;0.00;0.00;;;;;;;;;;4935673;29;20034;-62
2022/03/15 13:53:17;;;;;;;0.00;0.00;;;;;;;;;;4928033;29;20036;-61
2022/03/15 13:55:42;;;;;;;2.50;2.30;;;;;;;;;;4928186;29;20122;-60
2022/03/15 13:58:08;;;;;;;0.43;0.43;;;;;;;;;;4930529;29;20462;-59
2022/03/15 14:00:34;;;;;;;1.38;1.27;;;;;;;;;;4929453;29;20039;-59
2022/03/15 14:03:05;;;;;;;2.13;2.03;;;;;;;;;;4937279;29;20031;-58
2022/03/15 14:05:31;;;;;;;0.57;0.40;;;;;;;;;;4932893;29;20034;-56
2022/03/15 14:08:01;;;;;;;2.50;2.40;;;;;;;;;;4935656;29;20036;-56
2022/03/15 14:10:26;;;;;;;0.47;0.47;;;;;;;;;;4937957;29;20094;-52
2022/03/15 14:12:55;;;;;;;1.00;1.00;;;;;;;;;;4941587;29;20023;-54
2022/03/15 14:15:21;;;;;;;0.40;0.40;;;;;;;;;;4934101;29;20478;-54
2022/03/15 14:17:49;;;;;;;0.50;0.50;;;;;;;;;;4936947;29;20031;-53
2022/03/15 14:20:41;;;;;;;1.08;1.08;;;;;;;;;;4934011;29;20016;-52
2022/03/15 14:23:08;;;;;;;0.00;0.00;;;;;;;;;;4916376;29;20069;-54
2022/03/15 14:25:34;;;;;;;0.10;0.10;;;;;;;;;;4916759;29;20327;-50
2022/03/15 14:28:01;;;;;;;0.00;0.00;;;;;;;;;;4915520;29;20168;-54
2022/03/15 14:30:27;;;;;;;0.00;0.00;;;;;;;;;;4911619;29;20060;-55
2022/03/15 14:32:56;;;;;;;0.00;0.00;;;;;;;;;;4913219;29;20083;-53
2022/03/15 14:35:36;;;;;;;0.00;0.00;;;;;;;;;;4912911;29;20028;-53
2022/03/15 14:38:09;;;;;;;1.10;0.52;;;;;;;;;;4912858;29;20496;-57